createdAt,value
2022-10-17T00:01:11.594Z,16.23
2022-10-17T00:03:36.239Z,16.10
2022-10-17T00:05:59.269Z,17.13
2022-10-17T00:08:21.952Z,16.70
2022-10-17T00:10:45.192Z,16.17
2022-10-17T00:13:08.829Z,16.80
2022-10-17T00:15:31.682Z,16.70
2022-10-17T00:17:54.265Z,16.27
2022-10-17T00:20:17.265Z,15.45
2022-10-17T00:22:40.138Z,17.00
2022-10-17T00:25:02.710Z,15.32
2022-10-17T00:27:25.772Z,16.73
2022-10-17T00:29:50.242Z,16.58
2022-10-17T00:32:12.828Z,16.05
2022-10-17T00:34:35.237Z,15.82
2022-10-17T00:36:58.101Z,16.45
2022-10-17T00:39:20.978Z,15.95
2022-10-17T00:41:43.687Z,16.42
2022-10-17T00:44:31.370Z,15.80
2022-10-17T00:46:54.064Z,16.10
2022-10-17T00:49:16.786Z,16.05
2022-10-17T00:51:46.776Z,15.70
2022-10-17T00:54:13.842Z,16.05
2022-10-17T00:56:37.000Z,16.00
2022-10-17T00:59:00.701Z,15.32
2022-10-17T01:01:23.344Z,15.60
2022-10-17T01:03:46.108Z,15.85
2022-10-17T01:06:11.698Z,15.27
2022-10-17T01:08:34.629Z,15.50
2022-10-17T01:11:03.319Z,16.35
2022-10-17T01:13:38.174Z,15.93
2022-10-17T01:16:17.237Z,15.98
2022-10-17T01:18:50.231Z,15.52
2022-10-17T01:21:39.194Z,15.38
2022-10-17T01:24:04.854Z,15.30
2022-10-17T01:26:55.475Z,15.48
2022-10-17T01:29:56.130Z,15.27
2022-10-17T01:32:37.112Z,15.50
2022-10-17T01:35:13.284Z,15.00
2022-10-17T01:37:56.113Z,16.08
2022-10-17T01:40:49.128Z,15.13
2022-10-17T01:43:23.756Z,15.00
2022-10-17T01:45:53.840Z,14.73
2022-10-17T01:48:21.779Z,16.10
2022-10-17T01:50:56.929Z,15.48
2022-10-17T01:53:33.678Z,15.63
2022-10-17T01:56:00.426Z,14.55
2022-10-17T01:58:34.088Z,15.93
2022-10-17T02:01:01.588Z,15.15
2022-10-17T02:03:28.652Z,15.15
2022-10-17T02:05:51.730Z,15.23
2022-10-17T02:08:25.066Z,15.27
2022-10-17T02:10:54.875Z,15.05
2022-10-17T02:13:35.575Z,15.05
2022-10-17T02:16:10.852Z,14.50
2022-10-17T02:19:15.716Z,15.13
2022-10-17T02:22:08.806Z,14.27
2022-10-17T02:24:57.765Z,14.98
2022-10-17T02:27:55.916Z,15.13
2022-10-17T02:30:55.103Z,14.57
2022-10-17T02:33:40.785Z,14.00
2022-10-17T02:36:08.997Z,13.93
2022-10-17T02:38:33.135Z,14.07
2022-10-17T02:40:57.270Z,14.73
2022-10-17T02:43:21.958Z,14.07
2022-10-17T02:45:46.169Z,14.27
2022-10-17T02:48:15.432Z,14.13
2022-10-17T02:51:01.271Z,14.30
2022-10-17T02:53:31.593Z,14.70
2022-10-17T02:56:00.433Z,14.65
2022-10-17T02:58:29.059Z,14.75
2022-10-17T03:00:52.761Z,13.80
2022-10-17T03:03:30.375Z,14.38
2022-10-17T03:05:57.067Z,14.00
2022-10-17T03:08:22.374Z,14.00
2022-10-17T03:10:45.138Z,14.48
2022-10-17T03:13:07.701Z,14.40
2022-10-17T03:15:34.215Z,15.05
2022-10-17T03:17:57.007Z,13.93
2022-10-17T03:20:19.672Z,14.38
2022-10-17T03:22:42.181Z,14.20
2022-10-17T03:25:06.487Z,14.00
2022-10-17T03:27:31.640Z,14.50
2022-10-17T03:29:54.596Z,14.80
2022-10-17T03:32:17.348Z,14.48
2022-10-17T03:34:39.958Z,14.40
2022-10-17T03:37:02.748Z,14.23
2022-10-17T03:39:27.037Z,14.02
2022-10-17T03:41:49.878Z,14.52
2022-10-17T03:44:12.520Z,13.93
2022-10-17T03:46:35.336Z,13.48
2022-10-17T03:48:57.940Z,14.43
2022-10-17T03:51:20.768Z,13.55
2022-10-17T03:53:48.020Z,14.50
2022-10-17T03:56:15.329Z,14.82
2022-10-17T03:58:38.871Z,14.35
2022-10-17T04:01:09.783Z,15.50
2022-10-17T04:03:33.316Z,14.80
2022-10-17T04:05:59.964Z,14.80
2022-10-17T04:08:23.153Z,14.38
2022-10-17T04:11:08.426Z,14.15
2022-10-17T04:13:31.534Z,14.90
2022-10-17T04:15:59.041Z,14.15
2022-10-17T04:18:22.142Z,13.88
2022-10-17T04:20:44.711Z,13.63
2022-10-17T04:23:07.588Z,14.18
2022-10-17T04:25:33.413Z,14.15
2022-10-17T04:27:58.685Z,13.93
2022-10-17T04:30:21.512Z,13.98
2022-10-17T04:32:44.200Z,13.80
2022-10-17T04:35:15.533Z,14.57
2022-10-17T04:37:43.306Z,14.00
2022-10-17T04:40:12.527Z,13.88
2022-10-17T04:42:35.295Z,14.02
2022-10-17T04:44:58.111Z,14.85
2022-10-17T04:47:22.100Z,13.85
2022-10-17T04:49:44.846Z,13.45
2022-10-17T04:52:11.055Z,13.65
2022-10-17T04:54:36.628Z,13.95
2022-10-17T04:57:03.718Z,13.70
2022-10-17T04:59:26.357Z,13.75
2022-10-17T05:02:00.089Z,13.75
2022-10-17T05:04:24.847Z,12.90
2022-10-17T05:06:48.969Z,13.18
2022-10-17T05:09:28.026Z,13.50
2022-10-17T05:11:50.698Z,13.63
2022-10-17T05:14:15.146Z,13.02
2022-10-17T05:16:38.274Z,13.57
2022-10-17T05:19:01.845Z,12.50
2022-10-17T05:24:00.301Z,12.82
2022-10-17T05:26:23.942Z,13.30
2022-10-17T05:28:46.786Z,13.50
2022-10-17T05:31:11.485Z,13.45
2022-10-17T05:33:35.153Z,13.43
2022-10-17T05:35:58.568Z,12.80
2022-10-17T05:38:21.260Z,14.07
2022-10-17T05:40:45.551Z,12.68
2022-10-17T05:43:08.752Z,14.05
2022-10-17T05:45:31.645Z,13.85
2022-10-17T05:47:55.525Z,14.73
2022-10-17T05:50:21.606Z,15.15
2022-10-17T05:53:02.916Z,14.88
2022-10-17T05:55:25.955Z,14.60
2022-10-17T05:57:52.714Z,14.13
2022-10-17T06:00:16.212Z,14.40
2022-10-17T06:02:40.341Z,14.23
2022-10-17T06:05:02.935Z,13.90
2022-10-17T06:07:25.529Z,14.20
2022-10-17T06:09:49.023Z,13.02
2022-10-17T06:12:11.599Z,13.45
2022-10-17T06:14:34.612Z,12.93
2022-10-17T06:16:59.395Z,13.90
2022-10-17T06:19:24.541Z,12.85
2022-10-17T06:21:47.248Z,15.70
2022-10-17T06:24:14.406Z,17.55
2022-10-17T06:26:38.626Z,17.23
2022-10-17T06:29:03.765Z,15.45
2022-10-17T06:31:31.127Z,14.02
2022-10-17T06:33:53.832Z,13.88
2022-10-17T06:36:16.527Z,12.95
2022-10-17T06:38:41.635Z,14.48
2022-10-17T06:41:15.076Z,13.82
2022-10-17T06:43:38.300Z,16.83
2022-10-17T06:46:36.575Z,16.70
2022-10-17T06:49:01.263Z,14.27
2022-10-17T06:51:39.131Z,13.40
2022-10-17T06:54:04.959Z,13.75
2022-10-17T06:57:06.027Z,15.25
2022-10-17T06:59:47.489Z,13.00
2022-10-17T07:02:23.712Z,11.93
2022-10-17T07:04:48.476Z,14.10
2022-10-17T07:07:11.119Z,13.70
2022-10-17T07:09:34.247Z,14.35
2022-10-17T07:11:57.560Z,13.73
2022-10-17T07:14:20.213Z,13.18
2022-10-17T07:16:43.321Z,13.52
2022-10-17T07:19:15.120Z,13.55
2022-10-17T07:21:39.210Z,13.75
2022-10-17T07:24:04.223Z,14.07
2022-10-17T07:26:27.099Z,14.88
2022-10-17T07:28:54.600Z,14.55
2022-10-17T07:31:27.217Z,14.82
2022-10-17T07:33:51.385Z,14.25
2022-10-17T07:36:14.110Z,14.65
2022-10-17T07:38:37.428Z,14.25
2022-10-17T07:41:03.578Z,13.55
2022-10-17T07:43:27.120Z,13.88
2022-10-17T07:45:50.569Z,12.57
2022-10-17T07:48:13.415Z,12.85
2022-10-17T07:50:36.647Z,12.70
2022-10-17T07:52:59.514Z,13.05
2022-10-17T07:55:22.228Z,13.05
2022-10-17T07:57:45.082Z,14.05
2022-10-17T08:00:08.904Z,13.65
2022-10-17T08:02:40.217Z,13.45
2022-10-17T08:05:02.952Z,13.40
2022-10-17T08:07:29.282Z,12.18
2022-10-17T08:09:53.055Z,12.55
2022-10-17T08:12:16.098Z,12.30
2022-10-17T08:14:39.889Z,11.75
2022-10-17T08:17:02.554Z,11.77
2022-10-17T08:19:25.424Z,11.60
2022-10-17T08:21:49.755Z,11.43
2022-10-17T08:24:12.899Z,11.70
2022-10-17T08:26:39.257Z,12.07
2022-10-17T08:29:05.138Z,12.10
2022-10-17T08:31:27.811Z,13.10
2022-10-17T08:33:51.136Z,12.57
2022-10-17T08:36:15.356Z,11.32
2022-10-17T08:38:43.193Z,10.90
2022-10-17T08:41:26.391Z,10.95
2022-10-17T08:44:19.475Z,11.00
2022-10-17T08:46:45.044Z,11.13
2022-10-17T08:49:15.116Z,10.95
2022-10-17T08:51:44.384Z,11.23
2022-10-17T08:54:16.014Z,11.25
2022-10-17T08:56:54.163Z,10.82
2022-10-17T08:59:29.372Z,10.77
2022-10-17T09:02:29.461Z,10.52
2022-10-17T09:05:01.816Z,10.15
2022-10-17T09:07:24.825Z,9.68
2022-10-17T09:10:33.867Z,10.48
2022-10-17T09:13:18.588Z,10.10
2022-10-17T09:16:08.247Z,10.68
2022-10-17T09:18:36.171Z,10.65
2022-10-17T09:21:18.669Z,10.00
2022-10-17T09:24:09.610Z,9.80
2022-10-17T09:26:40.937Z,10.48
2022-10-17T09:29:10.630Z,9.95
2022-10-17T09:31:40.957Z,9.73
2022-10-17T09:34:28.216Z,9.80
2022-10-17T09:36:50.970Z,9.98
2022-10-17T09:39:26.235Z,8.98
2022-10-17T09:41:52.034Z,9.15
2022-10-17T09:44:18.731Z,9.73
2022-10-17T09:46:51.018Z,9.60
2022-10-17T09:49:19.958Z,10.25
2022-10-17T09:51:42.757Z,9.00
2022-10-17T09:54:17.801Z,8.90
2022-10-17T09:57:00.593Z,8.82
2022-10-17T09:59:42.168Z,8.63
2022-10-17T10:02:26.563Z,8.25
2022-10-17T10:05:09.557Z,8.27
2022-10-17T10:07:40.106Z,7.80
2022-10-17T10:10:04.718Z,7.43
2022-10-17T10:12:32.057Z,7.70
2022-10-17T10:14:55.992Z,7.78
2022-10-17T10:17:35.503Z,7.95
2022-10-17T10:19:59.667Z,7.70
2022-10-17T10:22:25.700Z,7.43
2022-10-17T10:25:07.799Z,7.28
2022-10-17T10:27:30.599Z,7.70
2022-10-17T10:29:53.697Z,6.95
2022-10-17T10:32:22.454Z,7.50
2022-10-17T10:34:59.211Z,7.45
2022-10-17T10:37:41.890Z,7.10
2022-10-17T10:40:16.277Z,7.30
2022-10-17T10:42:40.450Z,7.00
2022-10-17T10:45:29.202Z,7.25
2022-10-17T10:48:01.316Z,6.95
2022-10-17T10:50:29.831Z,9.63
2022-10-17T10:53:22.784Z,7.32
2022-10-17T10:55:52.107Z,6.80
2022-10-17T10:58:42.064Z,6.72
2022-10-17T11:01:14.686Z,6.85
2022-10-17T11:03:50.284Z,6.50
2022-10-17T11:06:30.521Z,6.55
2022-10-17T11:09:14.014Z,6.72
2022-10-17T11:11:42.593Z,6.05
2022-10-17T11:14:37.358Z,6.28
2022-10-17T11:17:09.207Z,6.68
2022-10-17T11:19:51.879Z,6.82
2022-10-17T11:22:26.709Z,6.75
2022-10-17T11:25:32.616Z,6.63
2022-10-17T11:27:55.607Z,6.63
2022-10-17T11:30:18.800Z,6.65
2022-10-17T11:32:49.138Z,6.35
2022-10-17T11:35:27.983Z,7.07
2022-10-17T11:37:58.238Z,6.25
2022-10-17T11:40:51.299Z,6.38
2022-10-17T11:43:16.935Z,5.93
2022-10-17T11:45:44.644Z,6.88
2022-10-17T11:48:37.679Z,5.88
2022-10-17T11:54:02.525Z,5.90
2022-10-17T11:57:06.351Z,6.00
2022-10-17T11:59:45.278Z,5.63
2022-10-17T12:02:31.039Z,5.18
2022-10-17T12:05:07.004Z,5.38
2022-10-17T12:08:12.028Z,5.00
2022-10-17T12:10:47.522Z,5.43
2022-10-17T12:13:28.378Z,5.32
2022-10-17T12:15:51.001Z,5.43
2022-10-17T12:18:17.502Z,4.93
2022-10-17T12:20:40.167Z,5.20
2022-10-17T12:23:19.480Z,5.30
2022-10-17T12:26:01.491Z,4.90
2022-10-17T12:28:48.132Z,5.03
2022-10-17T12:31:23.150Z,5.25
2022-10-17T12:33:53.264Z,5.20
2022-10-17T12:36:18.589Z,5.07
2022-10-17T12:38:41.251Z,5.10
2022-10-17T12:41:05.610Z,5.80
2022-10-17T12:43:28.465Z,5.45
2022-10-17T12:46:02.285Z,5.38
2022-10-17T12:48:33.858Z,5.03
2022-10-17T12:51:35.320Z,5.10
2022-10-17T12:54:15.155Z,5.00
2022-10-17T12:56:41.457Z,5.22
2022-10-17T12:59:22.674Z,4.95
2022-10-17T13:01:48.266Z,4.82
2022-10-17T13:04:11.456Z,5.43
2022-10-17T13:06:39.935Z,4.97
2022-10-17T13:09:06.104Z,5.25
2022-10-17T13:11:31.883Z,4.75
2022-10-17T13:13:57.351Z,4.93
2022-10-17T13:16:40.022Z,5.10
2022-10-17T13:19:14.884Z,5.40
2022-10-17T13:21:37.572Z,5.07
2022-10-17T13:24:01.219Z,5.28
2022-10-17T13:26:28.929Z,6.20
2022-10-17T13:29:05.078Z,5.35
2022-10-17T13:31:32.094Z,5.40
2022-10-17T13:34:00.999Z,5.40
2022-10-17T13:36:24.186Z,5.20
2022-10-17T13:38:47.307Z,4.93
2022-10-17T13:41:34.767Z,6.18
2022-10-17T13:44:00.983Z,5.63
2022-10-17T13:46:37.922Z,5.10
2022-10-17T13:49:15.803Z,5.32
2022-10-17T13:51:43.965Z,5.68
2022-10-17T13:54:29.823Z,5.40
2022-10-17T13:56:57.565Z,5.22
2022-10-17T13:59:25.014Z,5.40
2022-10-17T14:01:49.868Z,5.32
2022-10-17T14:04:19.919Z,5.70
2022-10-17T14:06:47.662Z,5.30
2022-10-17T14:09:32.376Z,5.25
2022-10-17T14:12:02.701Z,5.13
2022-10-17T14:14:26.357Z,5.07
2022-10-17T14:16:49.297Z,4.95
2022-10-17T14:19:32.050Z,5.18
2022-10-17T14:21:57.080Z,5.03
2022-10-17T14:24:22.343Z,5.10
2022-10-17T14:27:03.316Z,5.05
2022-10-17T14:29:28.783Z,5.05
2022-10-17T14:31:58.511Z,4.70
2022-10-17T14:34:26.677Z,4.38
2022-10-17T14:36:52.059Z,5.03
2022-10-17T14:39:24.462Z,4.88
2022-10-17T14:41:48.157Z,4.80
2022-10-17T14:44:24.357Z,4.53
2022-10-17T14:46:51.081Z,4.60
2022-10-17T14:49:35.502Z,4.20
2022-10-17T14:52:23.624Z,4.70
2022-10-17T14:54:49.251Z,4.45
2022-10-17T14:57:28.472Z,4.38
2022-10-17T14:59:55.176Z,4.50
2022-10-17T15:02:18.179Z,4.47
2022-10-17T15:04:41.062Z,5.10
2022-10-17T15:07:03.656Z,4.45
2022-10-17T15:09:28.911Z,4.68
2022-10-17T15:11:51.420Z,4.38
2022-10-17T15:14:13.911Z,4.90
2022-10-17T15:16:37.152Z,4.38
2022-10-17T15:19:00.808Z,4.25
2022-10-17T15:21:37.333Z,4.72
2022-10-17T15:24:02.061Z,5.32
2022-10-17T15:26:26.856Z,4.85
2022-10-17T15:28:50.342Z,4.60
2022-10-17T15:31:15.184Z,4.95
2022-10-17T15:33:37.732Z,4.82
2022-10-17T15:36:00.290Z,4.80
2022-10-17T15:38:22.892Z,4.88
2022-10-17T15:40:48.891Z,5.10
2022-10-17T15:43:11.493Z,5.18
2022-10-17T15:45:34.049Z,4.60
2022-10-17T15:48:02.840Z,5.13
2022-10-17T15:50:25.399Z,5.45
2022-10-17T15:52:51.143Z,5.10
2022-10-17T15:55:13.787Z,5.18
2022-10-17T15:57:40.269Z,5.03
2022-10-17T16:00:04.671Z,5.60
2022-10-17T16:02:33.436Z,5.00
2022-10-17T16:04:55.906Z,5.68
2022-10-17T16:07:19.573Z,5.82
2022-10-17T16:09:43.335Z,6.38
2022-10-17T16:12:11.676Z,7.05
2022-10-17T16:14:34.275Z,8.32
2022-10-17T16:16:56.928Z,7.43
2022-10-17T16:19:23.709Z,7.35
2022-10-17T16:21:46.672Z,7.10
2022-10-17T16:24:13.040Z,6.43
2022-10-17T16:26:35.963Z,6.40
2022-10-17T16:29:02.864Z,6.70
2022-10-17T16:31:31.177Z,6.60
2022-10-17T16:33:55.222Z,6.22
2022-10-17T16:36:17.965Z,6.28
2022-10-17T16:38:40.578Z,6.28
2022-10-17T16:41:03.350Z,6.35
2022-10-17T16:43:25.902Z,6.20
2022-10-17T16:45:48.393Z,5.78
2022-10-17T16:48:12.283Z,6.10
2022-10-17T16:50:39.320Z,5.32
2022-10-17T16:53:03.927Z,5.82
2022-10-17T16:55:26.614Z,5.40
2022-10-17T16:57:49.475Z,5.63
2022-10-17T17:00:12.811Z,5.57
2022-10-17T17:02:35.310Z,5.82
2022-10-17T17:04:57.986Z,5.72
2022-10-17T17:07:21.847Z,5.35
2022-10-17T17:09:44.607Z,6.15
2022-10-17T17:12:07.199Z,5.95
2022-10-17T17:14:29.708Z,5.57
2022-10-17T17:16:52.178Z,6.00
2022-10-17T17:19:17.143Z,5.43
2022-10-17T17:21:40.324Z,5.78
2022-10-17T17:24:04.687Z,5.78
2022-10-17T17:26:30.091Z,5.90
2022-10-17T17:28:54.320Z,5.43
2022-10-17T17:31:22.830Z,6.07
2022-10-17T17:33:46.850Z,5.85
2022-10-17T17:36:13.798Z,6.55
2022-10-17T17:38:36.945Z,5.95
2022-10-17T17:40:59.669Z,5.90
2022-10-17T17:43:24.526Z,6.05
2022-10-17T17:45:47.417Z,5.65
2022-10-17T17:48:10.204Z,5.95
2022-10-17T17:50:35.761Z,6.00
2022-10-17T17:52:58.692Z,6.05
2022-10-17T17:55:21.249Z,6.50
2022-10-17T17:57:43.752Z,6.32
2022-10-17T18:00:07.252Z,6.25
2022-10-17T18:02:31.002Z,6.82
2022-10-17T18:04:53.766Z,6.40
2022-10-17T18:07:16.411Z,7.47
2022-10-17T18:09:39.731Z,7.10
2022-10-17T18:12:02.381Z,7.40
2022-10-17T18:14:25.639Z,7.63
2022-10-17T18:16:48.245Z,8.05
2022-10-17T18:19:11.615Z,9.50
2022-10-17T18:21:36.221Z,8.65
2022-10-17T18:24:00.385Z,7.65
2022-10-17T18:26:23.378Z,8.30
2022-10-17T18:28:47.034Z,9.30
2022-10-17T18:31:24.335Z,10.73
2022-10-17T18:33:47.071Z,10.68
2022-10-17T18:36:13.506Z,10.60
2022-10-17T18:38:37.000Z,9.23
2022-10-17T18:41:11.091Z,9.63
2022-10-17T18:43:35.692Z,9.93
2022-10-17T18:46:04.034Z,9.55
2022-10-17T18:48:26.535Z,8.77
2022-10-17T18:50:49.021Z,8.75
2022-10-17T18:53:11.590Z,8.82
2022-10-17T18:55:34.383Z,9.00
2022-10-17T18:58:00.908Z,9.20
2022-10-17T19:00:23.402Z,8.90
2022-10-17T19:02:46.563Z,9.18
2022-10-17T19:05:09.708Z,9.73
2022-10-17T19:07:32.613Z,10.02
2022-10-17T19:09:57.681Z,9.25
2022-10-17T19:12:20.587Z,9.98
2022-10-17T19:14:43.319Z,9.00
2022-10-17T19:17:05.908Z,9.05
2022-10-17T19:19:28.633Z,9.20
2022-10-17T19:21:51.791Z,9.10
2022-10-17T19:24:21.157Z,9.35
2022-10-17T19:26:45.592Z,9.50
2022-10-17T19:29:08.515Z,10.40
2022-10-17T19:31:33.346Z,14.45
2022-10-17T19:33:56.486Z,13.18
2022-10-17T19:36:21.016Z,15.02
2022-10-17T19:38:43.555Z,14.65
2022-10-17T19:41:11.412Z,13.20
2022-10-17T19:43:37.609Z,13.27
2022-10-17T19:46:02.103Z,13.63
2022-10-17T19:48:25.982Z,13.35
2022-10-17T19:50:49.987Z,15.23
2022-10-17T19:53:12.457Z,14.27
2022-10-17T19:55:34.939Z,13.05
2022-10-17T19:57:59.221Z,14.82
2022-10-17T20:00:21.837Z,13.68
2022-10-17T20:02:44.301Z,15.15
2022-10-17T20:05:20.950Z,15.65
2022-10-17T20:07:46.299Z,16.75
2022-10-17T20:10:09.679Z,17.65
2022-10-17T20:12:32.844Z,17.15
2022-10-17T20:14:55.645Z,18.52
2022-10-17T20:17:18.164Z,19.17
2022-10-17T20:19:40.996Z,19.85
2022-10-17T20:22:03.592Z,19.45
2022-10-17T20:24:26.077Z,19.27
2022-10-17T20:26:48.842Z,17.20
2022-10-17T20:29:20.520Z,16.95
2022-10-17T20:31:44.667Z,16.85
2022-10-17T20:34:07.221Z,16.40
2022-10-17T20:36:29.815Z,16.92
2022-10-17T20:38:56.815Z,16.58
2022-10-17T20:41:19.356Z,16.55
2022-10-17T20:43:42.131Z,16.75
2022-10-17T20:46:22.705Z,15.45
2022-10-17T20:48:52.324Z,15.73
2022-10-17T20:51:16.535Z,18.13
2022-10-17T20:53:39.044Z,17.35
2022-10-17T20:56:07.934Z,17.48
2022-10-17T20:58:30.680Z,19.08
2022-10-17T21:00:53.290Z,19.25
2022-10-17T21:03:15.992Z,21.50
2022-10-17T21:05:41.666Z,20.48
2022-10-17T21:08:04.487Z,20.23
2022-10-17T21:10:35.583Z,20.25
2022-10-17T21:12:59.759Z,20.10
2022-10-17T21:15:22.605Z,20.38
2022-10-17T21:17:45.136Z,19.80
2022-10-17T21:20:08.199Z,19.55
2022-10-17T21:22:32.975Z,19.63
2022-10-17T21:24:55.756Z,19.17
2022-10-17T21:27:19.700Z,17.45
2022-10-17T21:29:42.600Z,17.90
2022-10-17T21:32:14.542Z,18.15
2022-10-17T21:34:47.997Z,18.80
2022-10-17T21:37:10.952Z,18.13
2022-10-17T21:39:33.584Z,17.35
2022-10-17T21:41:56.062Z,18.15
2022-10-17T21:44:21.126Z,18.58
2022-10-17T21:46:44.350Z,17.38
2022-10-17T21:49:07.028Z,18.73
2022-10-17T21:51:29.665Z,17.60
2022-10-17T21:53:53.661Z,17.85
2022-10-17T21:56:19.352Z,17.55
2022-10-17T21:58:42.737Z,17.20
2022-10-17T22:01:06.254Z,16.60
2022-10-17T22:03:28.687Z,16.73
2022-10-17T22:06:06.869Z,17.17
2022-10-17T22:08:37.408Z,17.67
2022-10-17T22:11:05.999Z,18.30
2022-10-17T22:13:28.899Z,17.98
2022-10-17T22:15:51.423Z,18.23
2022-10-17T22:18:14.445Z,19.40
2022-10-17T22:20:36.967Z,18.83
2022-10-17T22:22:59.490Z,18.95
2022-10-17T22:25:22.055Z,19.40
2022-10-17T22:27:44.861Z,18.48
2022-10-17T22:30:08.087Z,18.92
2022-10-17T22:32:30.781Z,18.65
2022-10-17T22:34:53.360Z,19.30
2022-10-17T22:37:15.856Z,18.67
2022-10-17T22:39:42.551Z,19.10
2022-10-17T22:42:05.033Z,18.92
2022-10-17T22:44:27.498Z,18.17
2022-10-17T22:46:50.109Z,17.65
2022-10-17T22:49:12.695Z,18.13
2022-10-17T22:51:35.177Z,17.48
2022-10-17T22:53:57.683Z,17.38
2022-10-17T22:56:21.723Z,17.75
2022-10-17T22:58:44.393Z,17.55
2022-10-17T23:01:08.631Z,16.77
2022-10-17T23:03:32.095Z,17.27
2022-10-17T23:05:54.891Z,18.08
2022-10-17T23:08:20.734Z,17.42
2022-10-17T23:10:43.733Z,17.33
2022-10-17T23:13:06.343Z,17.23
2022-10-17T23:15:28.972Z,17.73
2022-10-17T23:17:51.440Z,16.30
2022-10-17T23:20:14.155Z,17.58
2022-10-17T23:22:36.675Z,17.38
2022-10-17T23:24:59.291Z,16.75
2022-10-17T23:27:21.854Z,17.67
2022-10-17T23:29:46.325Z,16.75
2022-10-17T23:32:09.168Z,16.73
2022-10-17T23:34:31.715Z,17.73
2022-10-17T23:36:54.272Z,17.45
2022-10-17T23:39:17.061Z,16.88
2022-10-17T23:41:39.734Z,16.83
2022-10-17T23:44:02.376Z,16.98
2022-10-17T23:46:25.014Z,17.52
2022-10-17T23:48:47.609Z,16.35
2022-10-17T23:51:10.868Z,15.82
2022-10-17T23:53:33.420Z,16.80
2022-10-17T23:55:55.923Z,17.20
2022-10-17T23:58:18.780Z,16.67
